sensor_id;sensor_type;location;lat;lon;timestamp;P1;durP1;ratioP1;P2;durP2;ratioP2
77040;SDS011;65974;42.664;23.264;2023-02-18T00:01:20;18.33;;;10.05;;
77040;SDS011;65974;42.664;23.264;2023-02-18T00:03:47;23.75;;;8.75;;
77040;SDS011;65974;42.664;23.264;2023-02-18T00:06:16;17.88;;;9.38;;
77040;SDS011;65974;42.664;23.264;2023-02-18T00:08:42;21.35;;;10.60;;
77040;SDS011;65974;42.664;23.264;2023-02-18T00:11:08;16.63;;;7.95;;
77040;SDS011;65974;42.664;23.264;2023-02-18T00:13:35;12.02;;;7.85;;
77040;SDS011;65974;42.664;23.264;2023-02-18T00:16:05;12.02;;;6.70;;
77040;SDS011;65974;42.664;23.264;2023-02-18T00:18:32;15.75;;;9.25;;
77040;SDS011;65974;42.664;23.264;2023-02-18T00:20:58;15.25;;;7.55;;
77040;SDS011;65974;42.664;23.264;2023-02-18T00:23:23;19.25;;;8.05;;
77040;SDS011;65974;42.664;23.264;2023-02-18T00:25:57;22.08;;;11.40;;
77040;SDS011;65974;42.664;23.264;2023-02-18T00:28:26;17.50;;;8.75;;
77040;SDS011;65974;42.664;23.264;2023-02-18T00:30:52;18.52;;;8.32;;
77040;SDS011;65974;42.664;23.264;2023-02-18T00:33:17;19.85;;;9.48;;
77040;SDS011;65974;42.664;23.264;2023-02-18T00:35:42;8.32;;;4.68;;
77040;SDS011;65974;42.664;23.264;2023-02-18T00:38:08;18.98;;;10.02;;
77040;SDS011;65974;42.664;23.264;2023-02-18T00:40:36;14.93;;;7.80;;
77040;SDS011;65974;42.664;23.264;2023-02-18T00:43:02;13.77;;;7.40;;
77040;SDS011;65974;42.664;23.264;2023-02-18T00:45:27;14.40;;;10.38;;
77040;SDS011;65974;42.664;23.264;2023-02-18T00:47:53;16.55;;;9.07;;
77040;SDS011;65974;42.664;23.264;2023-02-18T00:50:18;20.38;;;9.98;;
77040;SDS011;65974;42.664;23.264;2023-02-18T00:52:44;14.32;;;8.07;;
77040;SDS011;65974;42.664;23.264;2023-02-18T00:55:09;13.25;;;7.53;;
77040;SDS011;65974;42.664;23.264;2023-02-18T00:57:34;23.42;;;11.23;;
77040;SDS011;65974;42.664;23.264;2023-02-18T01:00:00;20.50;;;10.27;;
77040;SDS011;65974;42.664;23.264;2023-02-18T01:02:25;15.52;;;10.15;;
77040;SDS011;65974;42.664;23.264;2023-02-18T01:04:52;25.95;;;12.55;;
77040;SDS011;65974;42.664;23.264;2023-02-18T01:07:17;26.75;;;10.30;;
77040;SDS011;65974;42.664;23.264;2023-02-18T01:09:43;11.25;;;6.97;;
77040;SDS011;65974;42.664;23.264;2023-02-18T01:12:09;12.63;;;6.57;;
77040;SDS011;65974;42.664;23.264;2023-02-18T01:14:34;14.68;;;6.38;;
77040;SDS011;65974;42.664;23.264;2023-02-18T01:17:00;13.57;;;7.35;;
77040;SDS011;65974;42.664;23.264;2023-02-18T01:19:25;18.15;;;8.95;;
77040;SDS011;65974;42.664;23.264;2023-02-18T01:21:51;22.95;;;11.15;;
77040;SDS011;65974;42.664;23.264;2023-02-18T01:24:18;16.50;;;9.10;;
77040;SDS011;65974;42.664;23.264;2023-02-18T01:26:43;12.85;;;7.38;;
77040;SDS011;65974;42.664;23.264;2023-02-18T01:29:09;15.10;;;7.63;;
77040;SDS011;65974;42.664;23.264;2023-02-18T01:31:35;9.93;;;6.63;;
77040;SDS011;65974;42.664;23.264;2023-02-18T01:34:01;16.95;;;6.93;;
77040;SDS011;65974;42.664;23.264;2023-02-18T01:36:26;18.77;;;10.00;;
77040;SDS011;65974;42.664;23.264;2023-02-18T01:38:52;21.85;;;9.80;;
77040;SDS011;65974;42.664;23.264;2023-02-18T01:41:17;19.17;;;9.68;;
77040;SDS011;65974;42.664;23.264;2023-02-18T01:43:43;15.60;;;8.73;;
77040;SDS011;65974;42.664;23.264;2023-02-18T01:48:43;12.98;;;8.00;;
77040;SDS011;65974;42.664;23.264;2023-02-18T01:51:18;15.18;;;8.18;;
77040;SDS011;65974;42.664;23.264;2023-02-18T01:56:21;13.07;;;7.60;;
77040;SDS011;65974;42.664;23.264;2023-02-18T01:59:09;16.23;;;8.55;;
77040;SDS011;65974;42.664;23.264;2023-02-18T02:01:38;25.08;;;7.20;;
77040;SDS011;65974;42.664;23.264;2023-02-18T02:04:06;13.27;;;8.07;;
77040;SDS011;65974;42.664;23.264;2023-02-18T02:06:31;11.55;;;7.63;;
77040;SDS011;65974;42.664;23.264;2023-02-18T02:08:57;22.65;;;10.10;;
77040;SDS011;65974;42.664;23.264;2023-02-18T02:14:04;9.10;;;5.55;;
77040;SDS011;65974;42.664;23.264;2023-02-18T02:16:47;13.98;;;8.05;;
77040;SDS011;65974;42.664;23.264;2023-02-18T02:40:26;22.33;;;10.45;;
77040;SDS011;65974;42.664;23.264;2023-02-18T02:45:35;14.93;;;5.25;;
77040;SDS011;65974;42.664;23.264;2023-02-18T02:51:08;11.82;;;7.20;;
77040;SDS011;65974;42.664;23.264;2023-02-18T02:53:41;15.23;;;8.18;;
77040;SDS011;65974;42.664;23.264;2023-02-18T02:56:12;13.27;;;6.57;;
77040;SDS011;65974;42.664;23.264;2023-02-18T02:58:40;17.77;;;7.05;;
77040;SDS011;65974;42.664;23.264;2023-02-18T03:01:10;11.32;;;6.22;;
77040;SDS011;65974;42.664;23.264;2023-02-18T03:12:17;11.70;;;6.68;;
77040;SDS011;65974;42.664;23.264;2023-02-18T03:14:45;18.67;;;9.75;;
77040;SDS011;65974;42.664;23.264;2023-02-18T03:20:42;11.80;;;6.57;;
77040;SDS011;65974;42.664;23.264;2023-02-18T03:23:16;9.15;;;6.75;;
77040;SDS011;65974;42.664;23.264;2023-02-18T03:25:47;11.45;;;7.63;;
77040;SDS011;65974;42.664;23.264;2023-02-18T03:28:16;15.98;;;8.80;;
77040;SDS011;65974;42.664;23.264;2023-02-18T03:31:18;18.10;;;11.32;;
77040;SDS011;65974;42.664;23.264;2023-02-18T03:33:53;18.40;;;12.70;;
77040;SDS011;65974;42.664;23.264;2023-02-18T03:39:06;10.77;;;6.30;;
77040;SDS011;65974;42.664;23.264;2023-02-18T03:41:35;19.33;;;10.30;;
77040;SDS011;65974;42.664;23.264;2023-02-18T03:44:03;11.48;;;6.60;;
77040;SDS011;65974;42.664;23.264;2023-02-18T03:46:30;13.50;;;8.38;;
77040;SDS011;65974;42.664;23.264;2023-02-18T03:48:57;15.90;;;9.00;;
77040;SDS011;65974;42.664;23.264;2023-02-18T03:51:22;19.42;;;9.05;;
77040;SDS011;65974;42.664;23.264;2023-02-18T03:53:48;16.13;;;8.13;;
77040;SDS011;65974;42.664;23.264;2023-02-18T03:56:14;9.00;;;5.95;;
77040;SDS011;65974;42.664;23.264;2023-02-18T03:58:39;15.73;;;9.13;;
77040;SDS011;65974;42.664;23.264;2023-02-18T04:01:05;17.35;;;10.25;;
77040;SDS011;65974;42.664;23.264;2023-02-18T04:03:30;14.18;;;7.68;;
77040;SDS011;65974;42.664;23.264;2023-02-18T04:05:56;11.75;;;7.30;;
77040;SDS011;65974;42.664;23.264;2023-02-18T04:08:22;13.50;;;7.50;;
77040;SDS011;65974;42.664;23.264;2023-02-18T04:10:48;22.35;;;11.88;;
77040;SDS011;65974;42.664;23.264;2023-02-18T04:13:14;20.55;;;11.00;;
77040;SDS011;65974;42.664;23.264;2023-02-18T04:15:39;13.15;;;7.30;;
77040;SDS011;65974;42.664;23.264;2023-02-18T04:18:04;23.52;;;10.55;;
77040;SDS011;65974;42.664;23.264;2023-02-18T04:20:30;11.65;;;5.75;;
77040;SDS011;65974;42.664;23.264;2023-02-18T04:22:55;10.75;;;6.25;;
77040;SDS011;65974;42.664;23.264;2023-02-18T04:25:21;27.48;;;11.05;;
77040;SDS011;65974;42.664;23.264;2023-02-18T04:27:46;16.42;;;8.43;;
77040;SDS011;65974;42.664;23.264;2023-02-18T04:30:12;28.83;;;11.80;;
77040;SDS011;65974;42.664;23.264;2023-02-18T04:32:37;12.40;;;7.80;;
77040;SDS011;65974;42.664;23.264;2023-02-18T04:35:03;25.27;;;10.95;;
77040;SDS011;65974;42.664;23.264;2023-02-18T04:37:29;50.00;;;29.70;;
77040;SDS011;65974;42.664;23.264;2023-02-18T04:39:54;43.50;;;25.83;;
77040;SDS011;65974;42.664;23.264;2023-02-18T04:42:20;22.60;;;11.40;;
77040;SDS011;65974;42.664;23.264;2023-02-18T04:44:45;13.65;;;7.93;;
77040;SDS011;65974;42.664;23.264;2023-02-18T04:47:11;28.63;;;14.73;;
77040;SDS011;65974;42.664;23.264;2023-02-18T04:49:36;19.00;;;10.50;;
77040;SDS011;65974;42.664;23.264;2023-02-18T04:52:02;20.73;;;11.55;;
77040;SDS011;65974;42.664;23.264;2023-02-18T04:54:27;11.85;;;8.27;;
77040;SDS011;65974;42.664;23.264;2023-02-18T04:56:53;15.52;;;7.50;;
77040;SDS011;65974;42.664;23.264;2023-02-18T04:59:18;7.22;;;4.03;;
77040;SDS011;65974;42.664;23.264;2023-02-18T05:01:44;14.40;;;7.70;;
77040;SDS011;65974;42.664;23.264;2023-02-18T05:04:09;12.38;;;6.18;;
77040;SDS011;65974;42.664;23.264;2023-02-18T05:06:35;19.80;;;9.25;;
77040;SDS011;65974;42.664;23.264;2023-02-18T05:09:02;25.05;;;10.23;;
77040;SDS011;65974;42.664;23.264;2023-02-18T05:11:27;18.13;;;10.43;;
77040;SDS011;65974;42.664;23.264;2023-02-18T05:13:52;19.08;;;10.13;;
77040;SDS011;65974;42.664;23.264;2023-02-18T05:16:18;20.40;;;9.55;;
77040;SDS011;65974;42.664;23.264;2023-02-18T05:19:02;11.82;;;8.38;;
77040;SDS011;65974;42.664;23.264;2023-02-18T05:21:27;12.57;;;8.90;;
77040;SDS011;65974;42.664;23.264;2023-02-18T05:23:53;13.38;;;8.27;;
77040;SDS011;65974;42.664;23.264;2023-02-18T05:26:18;13.63;;;7.85;;
77040;SDS011;65974;42.664;23.264;2023-02-18T05:28:43;33.90;;;18.45;;
77040;SDS011;65974;42.664;23.264;2023-02-18T05:31:09;20.73;;;11.77;;
77040;SDS011;65974;42.664;23.264;2023-02-18T05:33:34;19.27;;;9.13;;
77040;SDS011;65974;42.664;23.264;2023-02-18T05:35:59;11.05;;;7.35;;
77040;SDS011;65974;42.664;23.264;2023-02-18T05:38:25;12.95;;;6.80;;
77040;SDS011;65974;42.664;23.264;2023-02-18T05:40:50;15.55;;;8.98;;
77040;SDS011;65974;42.664;23.264;2023-02-18T05:43:16;15.35;;;8.02;;
77040;SDS011;65974;42.664;23.264;2023-02-18T05:45:41;45.22;;;18.65;;
77040;SDS011;65974;42.664;23.264;2023-02-18T05:48:07;36.13;;;18.58;;
77040;SDS011;65974;42.664;23.264;2023-02-18T05:50:32;14.45;;;7.60;;
77040;SDS011;65974;42.664;23.264;2023-02-18T05:52:58;15.95;;;8.35;;
77040;SDS011;65974;42.664;23.264;2023-02-18T05:55:23;23.35;;;11.80;;
77040;SDS011;65974;42.664;23.264;2023-02-18T05:57:49;28.17;;;14.60;;
77040;SDS011;65974;42.664;23.264;2023-02-18T06:00:15;26.00;;;14.25;;
77040;SDS011;65974;42.664;23.264;2023-02-18T06:02:41;30.00;;;15.48;;
77040;SDS011;65974;42.664;23.264;2023-02-18T06:05:07;21.83;;;9.10;;
77040;SDS011;65974;42.664;23.264;2023-02-18T06:07:33;15.40;;;10.23;;
77040;SDS011;65974;42.664;23.264;2023-02-18T06:09:59;15.45;;;9.60;;
77040;SDS011;65974;42.664;23.264;2023-02-18T06:12:24;31.45;;;13.95;;
77040;SDS011;65974;42.664;23.264;2023-02-18T06:14:50;22.17;;;10.95;;
77040;SDS011;65974;42.664;23.264;2023-02-18T06:17:15;28.00;;;13.57;;
77040;SDS011;65974;42.664;23.264;2023-02-18T06:19:43;16.80;;;9.23;;
77040;SDS011;65974;42.664;23.264;2023-02-18T06:22:09;18.10;;;11.05;;
77040;SDS011;65974;42.664;23.264;2023-02-18T06:24:34;32.22;;;14.40;;
77040;SDS011;65974;42.664;23.264;2023-02-18T06:27:00;21.38;;;12.30;;
77040;SDS011;65974;42.664;23.264;2023-02-18T06:29:26;17.33;;;9.27;;
77040;SDS011;65974;42.664;23.264;2023-02-18T06:31:56;26.40;;;12.25;;
77040;SDS011;65974;42.664;23.264;2023-02-18T06:34:22;21.48;;;10.82;;
77040;SDS011;65974;42.664;23.264;2023-02-18T06:36:48;12.68;;;7.50;;
77040;SDS011;65974;42.664;23.264;2023-02-18T06:39:13;18.58;;;8.60;;
77040;SDS011;65974;42.664;23.264;2023-02-18T06:41:39;19.65;;;8.90;;
77040;SDS011;65974;42.664;23.264;2023-02-18T06:44:05;21.27;;;9.35;;
77040;SDS011;65974;42.664;23.264;2023-02-18T06:46:30;17.80;;;10.30;;
77040;SDS011;65974;42.664;23.264;2023-02-18T06:48:56;21.73;;;9.10;;
77040;SDS011;65974;42.664;23.264;2023-02-18T06:51:21;10.95;;;6.32;;
77040;SDS011;65974;42.664;23.264;2023-02-18T06:53:47;14.98;;;6.88;;
77040;SDS011;65974;42.664;23.264;2023-02-18T06:56:12;50.60;;;23.90;;
77040;SDS011;65974;42.664;23.264;2023-02-18T06:58:37;38.63;;;18.23;;
77040;SDS011;65974;42.664;23.264;2023-02-18T07:01:03;27.35;;;11.05;;
77040;SDS011;65974;42.664;23.264;2023-02-18T07:03:29;26.50;;;11.88;;
77040;SDS011;65974;42.664;23.264;2023-02-18T07:05:55;18.40;;;7.18;;
77040;SDS011;65974;42.664;23.264;2023-02-18T07:08:20;14.63;;;8.77;;
77040;SDS011;65974;42.664;23.264;2023-02-18T07:10:46;29.52;;;14.13;;
77040;SDS011;65974;42.664;23.264;2023-02-18T07:13:12;37.53;;;12.25;;
77040;SDS011;65974;42.664;23.264;2023-02-18T07:15:38;23.75;;;13.55;;
77040;SDS011;65974;42.664;23.264;2023-02-18T07:18:03;23.55;;;11.38;;
77040;SDS011;65974;42.664;23.264;2023-02-18T07:20:30;19.92;;;10.98;;
77040;SDS011;65974;42.664;23.264;2023-02-18T07:22:56;19.25;;;9.38;;
77040;SDS011;65974;42.664;23.264;2023-02-18T07:25:21;15.10;;;9.63;;
77040;SDS011;65974;42.664;23.264;2023-02-18T07:27:47;16.30;;;11.30;;
77040;SDS011;65974;42.664;23.264;2023-02-18T07:30:12;26.27;;;12.98;;
77040;SDS011;65974;42.664;23.264;2023-02-18T07:32:38;17.77;;;9.75;;
77040;SDS011;65974;42.664;23.264;2023-02-18T07:35:04;13.27;;;8.75;;
77040;SDS011;65974;42.664;23.264;2023-02-18T07:37:30;17.98;;;7.80;;
77040;SDS011;65974;42.664;23.264;2023-02-18T07:39:56;18.25;;;8.13;;
77040;SDS011;65974;42.664;23.264;2023-02-18T07:42:21;12.85;;;8.13;;
77040;SDS011;65974;42.664;23.264;2023-02-18T07:44:47;12.18;;;7.53;;
77040;SDS011;65974;42.664;23.264;2023-02-18T07:47:13;13.57;;;6.85;;
77040;SDS011;65974;42.664;23.264;2023-02-18T07:49:41;11.60;;;5.80;;
77040;SDS011;65974;42.664;23.264;2023-02-18T07:52:07;21.38;;;10.65;;
77040;SDS011;65974;42.664;23.264;2023-02-18T07:54:32;19.40;;;10.90;;
77040;SDS011;65974;42.664;23.264;2023-02-18T07:56:58;14.88;;;8.82;;
77040;SDS011;65974;42.664;23.264;2023-02-18T07:59:23;21.88;;;10.85;;
77040;SDS011;65974;42.664;23.264;2023-02-18T08:01:48;27.00;;;12.93;;
77040;SDS011;65974;42.664;23.264;2023-02-18T08:04:14;33.63;;;13.77;;
77040;SDS011;65974;42.664;23.264;2023-02-18T08:06:41;21.60;;;11.48;;
77040;SDS011;65974;42.664;23.264;2023-02-18T08:09:10;12.40;;;7.45;;
77040;SDS011;65974;42.664;23.264;2023-02-18T08:11:36;10.93;;;7.28;;
77040;SDS011;65974;42.664;23.264;2023-02-18T08:14:01;24.13;;;12.63;;
77040;SDS011;65974;42.664;23.264;2023-02-18T08:16:26;28.40;;;14.07;;
77040;SDS011;65974;42.664;23.264;2023-02-18T08:18:52;19.02;;;10.27;;
77040;SDS011;65974;42.664;23.264;2023-02-18T08:21:19;16.30;;;8.23;;
77040;SDS011;65974;42.664;23.264;2023-02-18T08:23:46;23.17;;;12.57;;
77040;SDS011;65974;42.664;23.264;2023-02-18T08:26:12;17.05;;;10.85;;
77040;SDS011;65974;42.664;23.264;2023-02-18T08:28:38;18.55;;;9.45;;
77040;SDS011;65974;42.664;23.264;2023-02-18T08:31:04;20.27;;;10.68;;
77040;SDS011;65974;42.664;23.264;2023-02-18T08:33:29;23.30;;;11.93;;
77040;SDS011;65974;42.664;23.264;2023-02-18T08:35:55;15.98;;;8.73;;
77040;SDS011;65974;42.664;23.264;2023-02-18T08:38:21;16.70;;;9.18;;
77040;SDS011;65974;42.664;23.264;2023-02-18T08:40:49;17.92;;;9.65;;
77040;SDS011;65974;42.664;23.264;2023-02-18T08:43:16;26.48;;;11.68;;
77040;SDS011;65974;42.664;23.264;2023-02-18T08:45:42;29.67;;;14.88;;
77040;SDS011;65974;42.664;23.264;2023-02-18T08:48:09;20.50;;;8.70;;
77040;SDS011;65974;42.664;23.264;2023-02-18T08:50:36;32.47;;;14.98;;
77040;SDS011;65974;42.664;23.264;2023-02-18T08:53:02;23.92;;;11.95;;
77040;SDS011;65974;42.664;23.264;2023-02-18T08:55:29;25.08;;;11.43;;
77040;SDS011;65974;42.664;23.264;2023-02-18T08:57:55;15.75;;;9.65;;
77040;SDS011;65974;42.664;23.264;2023-02-18T09:00:21;31.73;;;11.77;;
77040;SDS011;65974;42.664;23.264;2023-02-18T09:02:46;24.67;;;10.95;;
77040;SDS011;65974;42.664;23.264;2023-02-18T09:05:12;20.90;;;9.55;;
77040;SDS011;65974;42.664;23.264;2023-02-18T09:07:38;26.70;;;12.30;;
77040;SDS011;65974;42.664;23.264;2023-02-18T09:10:04;26.23;;;12.48;;
77040;SDS011;65974;42.664;23.264;2023-02-18T09:12:31;25.52;;;13.55;;
77040;SDS011;65974;42.664;23.264;2023-02-18T09:14:57;28.95;;;14.00;;
77040;SDS011;65974;42.664;23.264;2023-02-18T09:17:22;33.28;;;16.35;;
77040;SDS011;65974;42.664;23.264;2023-02-18T09:19:48;29.90;;;13.77;;
77040;SDS011;65974;42.664;23.264;2023-02-18T09:22:13;31.75;;;14.20;;
77040;SDS011;65974;42.664;23.264;2023-02-18T09:24:39;27.23;;;15.20;;
77040;SDS011;65974;42.664;23.264;2023-02-18T09:27:06;33.05;;;14.65;;
77040;SDS011;65974;42.664;23.264;2023-02-18T09:29:32;43.53;;;17.63;;
77040;SDS011;65974;42.664;23.264;2023-02-18T09:31:59;26.13;;;13.55;;
77040;SDS011;65974;42.664;23.264;2023-02-18T09:34:25;12.52;;;7.93;;
77040;SDS011;65974;42.664;23.264;2023-02-18T09:36:51;22.10;;;11.48;;
77040;SDS011;65974;42.664;23.264;2023-02-18T09:39:16;23.02;;;11.50;;
77040;SDS011;65974;42.664;23.264;2023-02-18T09:41:47;18.45;;;10.25;;
77040;SDS011;65974;42.664;23.264;2023-02-18T09:44:26;27.58;;;12.80;;
77040;SDS011;65974;42.664;23.264;2023-02-18T09:47:05;25.42;;;12.20;;
77040;SDS011;65974;42.664;23.264;2023-02-18T09:49:38;13.18;;;8.13;;
77040;SDS011;65974;42.664;23.264;2023-02-18T09:52:09;26.35;;;11.80;;
77040;SDS011;65974;42.664;23.264;2023-02-18T09:54:35;14.57;;;8.27;;
77040;SDS011;65974;42.664;23.264;2023-02-18T09:57:01;28.73;;;11.85;;
77040;SDS011;65974;42.664;23.264;2023-02-18T09:59:27;27.98;;;12.55;;
77040;SDS011;65974;42.664;23.264;2023-02-18T10:01:54;24.80;;;12.25;;
77040;SDS011;65974;42.664;23.264;2023-02-18T10:04:24;27.80;;;11.27;;
77040;SDS011;65974;42.664;23.264;2023-02-18T10:06:54;18.90;;;11.52;;
77040;SDS011;65974;42.664;23.264;2023-02-18T10:09:35;33.08;;;12.95;;
77040;SDS011;65974;42.664;23.264;2023-02-18T10:12:15;28.48;;;14.18;;
77040;SDS011;65974;42.664;23.264;2023-02-18T10:14:43;26.90;;;12.90;;
77040;SDS011;65974;42.664;23.264;2023-02-18T10:17:13;26.30;;;13.65;;
77040;SDS011;65974;42.664;23.264;2023-02-18T10:19:41;26.92;;;11.90;;
77040;SDS011;65974;42.664;23.264;2023-02-18T10:22:11;23.50;;;11.25;;
77040;SDS011;65974;42.664;23.264;2023-02-18T10:24:39;26.33;;;13.18;;
77040;SDS011;65974;42.664;23.264;2023-02-18T10:27:08;24.17;;;12.27;;
77040;SDS011;65974;42.664;23.264;2023-02-18T10:29:39;28.90;;;13.65;;
77040;SDS011;65974;42.664;23.264;2023-02-18T10:32:22;29.70;;;14.00;;
77040;SDS011;65974;42.664;23.264;2023-02-18T10:43:40;28.90;;;12.55;;
77040;SDS011;65974;42.664;23.264;2023-02-18T10:46:25;26.88;;;11.45;;
77040;SDS011;65974;42.664;23.264;2023-02-18T10:49:05;23.27;;;10.80;;
77040;SDS011;65974;42.664;23.264;2023-02-18T10:51:52;17.98;;;10.55;;
77040;SDS011;65974;42.664;23.264;2023-02-18T10:54:24;23.88;;;12.10;;
77040;SDS011;65974;42.664;23.264;2023-02-18T10:56:52;26.15;;;11.60;;
77040;SDS011;65974;42.664;23.264;2023-02-18T10:59:29;21.00;;;10.10;;
77040;SDS011;65974;42.664;23.264;2023-02-18T11:01:58;18.25;;;8.98;;
77040;SDS011;65974;42.664;23.264;2023-02-18T11:04:36;26.15;;;11.27;;
77040;SDS011;65974;42.664;23.264;2023-02-18T11:07:20;24.90;;;9.85;;
77040;SDS011;65974;42.664;23.264;2023-02-18T11:09:51;12.70;;;6.05;;
77040;SDS011;65974;42.664;23.264;2023-02-18T11:12:19;12.75;;;5.22;;
77040;SDS011;65974;42.664;23.264;2023-02-18T11:14:49;7.25;;;2.50;;
77040;SDS011;65974;42.664;23.264;2023-02-18T11:17:31;8.98;;;2.50;;
77040;SDS011;65974;42.664;23.264;2023-02-18T11:19:58;2.53;;;1.83;;
77040;SDS011;65974;42.664;23.264;2023-02-18T11:22:32;3.28;;;2.13;;
77040;SDS011;65974;42.664;23.264;2023-02-18T11:25:01;8.27;;;2.30;;
77040;SDS011;65974;42.664;23.264;2023-02-18T11:30:21;7.38;;;2.53;;
77040;SDS011;65974;42.664;23.264;2023-02-18T11:32:51;6.22;;;2.60;;
77040;SDS011;65974;42.664;23.264;2023-02-18T11:35:24;11.02;;;3.17;;
77040;SDS011;65974;42.664;23.264;2023-02-18T11:37:52;4.20;;;2.28;;
77040;SDS011;65974;42.664;23.264;2023-02-18T11:40:24;4.10;;;2.17;;
77040;SDS011;65974;42.664;23.264;2023-02-18T11:45:39;2.85;;;1.58;;
77040;SDS011;65974;42.664;23.264;2023-02-18T11:48:18;4.03;;;2.25;;
77040;SDS011;65974;42.664;23.264;2023-02-18T11:50:51;3.50;;;1.83;;
77040;SDS011;65974;42.664;23.264;2023-02-18T11:55:58;3.83;;;2.38;;
77040;SDS011;65974;42.664;23.264;2023-02-18T11:58:33;6.47;;;3.17;;
77040;SDS011;65974;42.664;23.264;2023-02-18T12:01:02;5.88;;;2.20;;
77040;SDS011;65974;42.664;23.264;2023-02-18T12:03:53;4.80;;;2.25;;
77040;SDS011;65974;42.664;23.264;2023-02-18T12:09:42;4.32;;;2.30;;
77040;SDS011;65974;42.664;23.264;2023-02-18T12:14:50;6.95;;;2.40;;
77040;SDS011;65974;42.664;23.264;2023-02-18T12:17:24;7.82;;;3.10;;
77040;SDS011;65974;42.664;23.264;2023-02-18T12:23:20;8.85;;;2.42;;
77040;SDS011;65974;42.664;23.264;2023-02-18T15:02:26;9.45;;;5.00;;
77040;SDS011;65974;42.664;23.264;2023-02-18T15:05:04;9.48;;;5.93;;
77040;SDS011;65974;42.664;23.264;2023-02-18T15:07:41;9.10;;;4.60;;
77040;SDS011;65974;42.664;23.264;2023-02-18T15:10:15;14.98;;;5.30;;
77040;SDS011;65974;42.664;23.264;2023-02-18T15:12:40;10.25;;;5.32;;
77040;SDS011;65974;42.664;23.264;2023-02-18T15:15:06;13.07;;;5.93;;
77040;SDS011;65974;42.664;23.264;2023-02-18T15:17:40;7.80;;;4.38;;
77040;SDS011;65974;42.664;23.264;2023-02-18T15:20:11;8.77;;;4.63;;
77040;SDS011;65974;42.664;23.264;2023-02-18T15:22:38;9.98;;;5.25;;
77040;SDS011;65974;42.664;23.264;2023-02-18T15:25:04;9.45;;;5.78;;
77040;SDS011;65974;42.664;23.264;2023-02-18T15:27:31;9.60;;;5.32;;
77040;SDS011;65974;42.664;23.264;2023-02-18T15:30:23;8.90;;;4.57;;
77040;SDS011;65974;42.664;23.264;2023-02-18T15:32:53;15.77;;;5.65;;
77040;SDS011;65974;42.664;23.264;2023-02-18T15:35:20;7.85;;;4.72;;
77040;SDS011;65974;42.664;23.264;2023-02-18T15:37:54;10.13;;;5.28;;
77040;SDS011;65974;42.664;23.264;2023-02-18T15:40:23;11.45;;;5.75;;
77040;SDS011;65974;42.664;23.264;2023-02-18T15:42:54;8.85;;;5.18;;
77040;SDS011;65974;42.664;23.264;2023-02-18T15:45:32;8.45;;;4.20;;
77040;SDS011;65974;42.664;23.264;2023-02-18T15:48:00;9.48;;;5.03;;
77040;SDS011;65974;42.664;23.264;2023-02-18T15:50:28;11.15;;;5.07;;
77040;SDS011;65974;42.664;23.264;2023-02-18T15:52:58;9.85;;;4.70;;
77040;SDS011;65974;42.664;23.264;2023-02-18T15:55:33;12.95;;;5.03;;
77040;SDS011;65974;42.664;23.264;2023-02-18T15:58:04;12.68;;;6.00;;
77040;SDS011;65974;42.664;23.264;2023-02-18T16:00:38;16.88;;;5.78;;
77040;SDS011;65974;42.664;23.264;2023-02-18T16:03:14;18.92;;;5.97;;
77040;SDS011;65974;42.664;23.264;2023-02-18T16:05:40;13.48;;;6.45;;
77040;SDS011;65974;42.664;23.264;2023-02-18T16:08:12;12.98;;;4.82;;
77040;SDS011;65974;42.664;23.264;2023-02-18T16:10:52;13.40;;;5.07;;
77040;SDS011;65974;42.664;23.264;2023-02-18T16:13:21;15.43;;;5.65;;
77040;SDS011;65974;42.664;23.264;2023-02-18T16:15:48;10.05;;;5.18;;
77040;SDS011;65974;42.664;23.264;2023-02-18T16:18:23;13.93;;;7.18;;
77040;SDS011;65974;42.664;23.264;2023-02-18T16:23:51;14.70;;;7.75;;
77040;SDS011;65974;42.664;23.264;2023-02-18T16:26:38;18.48;;;8.82;;
77040;SDS011;65974;42.664;23.264;2023-02-18T16:29:10;14.85;;;7.80;;
77040;SDS011;65974;42.664;23.264;2023-02-18T16:31:54;12.63;;;7.13;;
77040;SDS011;65974;42.664;23.264;2023-02-18T16:34:19;12.90;;;7.68;;
77040;SDS011;65974;42.664;23.264;2023-02-18T16:36:45;22.05;;;10.55;;
77040;SDS011;65974;42.664;23.264;2023-02-18T16:39:30;20.58;;;8.00;;
77040;SDS011;65974;42.664;23.264;2023-02-18T16:41:58;16.02;;;8.18;;
77040;SDS011;65974;42.664;23.264;2023-02-18T16:44:24;20.75;;;9.68;;
77040;SDS011;65974;42.664;23.264;2023-02-18T16:46:49;14.82;;;6.72;;
77040;SDS011;65974;42.664;23.264;2023-02-18T16:49:15;22.30;;;7.07;;
77040;SDS011;65974;42.664;23.264;2023-02-18T16:51:42;19.92;;;8.20;;
77040;SDS011;65974;42.664;23.264;2023-02-18T16:54:11;17.13;;;7.25;;
77040;SDS011;65974;42.664;23.264;2023-02-18T16:56:38;25.58;;;10.10;;
77040;SDS011;65974;42.664;23.264;2023-02-18T16:59:06;22.88;;;9.70;;
77040;SDS011;65974;42.664;23.264;2023-02-18T17:01:36;13.32;;;5.70;;
77040;SDS011;65974;42.664;23.264;2023-02-18T17:04:06;17.13;;;6.53;;
77040;SDS011;65974;42.664;23.264;2023-02-18T17:06:34;13.90;;;6.93;;
77040;SDS011;65974;42.664;23.264;2023-02-18T17:09:00;15.80;;;6.72;;
77040;SDS011;65974;42.664;23.264;2023-02-18T17:11:33;15.48;;;6.07;;
77040;SDS011;65974;42.664;23.264;2023-02-18T17:14:01;11.55;;;5.18;;
77040;SDS011;65974;42.664;23.264;2023-02-18T17:16:29;14.27;;;6.45;;
77040;SDS011;65974;42.664;23.264;2023-02-18T17:18:55;9.85;;;4.80;;
77040;SDS011;65974;42.664;23.264;2023-02-18T17:21:21;8.48;;;4.93;;
77040;SDS011;65974;42.664;23.264;2023-02-18T17:23:49;8.27;;;4.60;;
77040;SDS011;65974;42.664;23.264;2023-02-18T17:26:21;9.90;;;5.13;;
77040;SDS011;65974;42.664;23.264;2023-02-18T17:28:49;10.88;;;4.72;;
77040;SDS011;65974;42.664;23.264;2023-02-18T17:31:18;7.32;;;4.43;;
77040;SDS011;65974;42.664;23.264;2023-02-18T17:33:46;6.85;;;3.28;;
77040;SDS011;65974;42.664;23.264;2023-02-18T17:36:12;5.50;;;2.78;;
77040;SDS011;65974;42.664;23.264;2023-02-18T17:38:38;8.88;;;4.18;;
77040;SDS011;65974;42.664;23.264;2023-02-18T17:41:10;11.93;;;5.45;;
77040;SDS011;65974;42.664;23.264;2023-02-18T17:43:40;8.50;;;3.83;;
77040;SDS011;65974;42.664;23.264;2023-02-18T17:46:08;10.05;;;4.97;;
77040;SDS011;65974;42.664;23.264;2023-02-18T17:48:36;10.50;;;5.47;;
77040;SDS011;65974;42.664;23.264;2023-02-18T17:51:02;9.98;;;5.13;;
77040;SDS011;65974;42.664;23.264;2023-02-18T17:53:32;6.70;;;3.60;;
77040;SDS011;65974;42.664;23.264;2023-02-18T17:56:01;6.55;;;4.47;;
77040;SDS011;65974;42.664;23.264;2023-02-18T17:58:27;9.38;;;4.00;;
77040;SDS011;65974;42.664;23.264;2023-02-18T18:00:53;8.68;;;3.95;;
77040;SDS011;65974;42.664;23.264;2023-02-18T18:03:21;9.05;;;4.47;;
77040;SDS011;65974;42.664;23.264;2023-02-18T18:05:47;25.33;;;11.73;;
77040;SDS011;65974;42.664;23.264;2023-02-18T18:08:18;12.57;;;5.03;;
77040;SDS011;65974;42.664;23.264;2023-02-18T18:10:48;12.00;;;4.88;;
77040;SDS011;65974;42.664;23.264;2023-02-18T18:13:22;7.70;;;3.70;;
77040;SDS011;65974;42.664;23.264;2023-02-18T18:15:50;11.30;;;5.32;;
77040;SDS011;65974;42.664;23.264;2023-02-18T18:18:16;9.43;;;4.40;;
77040;SDS011;65974;42.664;23.264;2023-02-18T18:20:47;17.63;;;7.97;;